Terminal Aerodrome Forecast
Issued by NWS Austin/San Antonio, TX

Home | Current Version | Previous Version | Text Only | Print | Product List | Glossary On
Versions: 1 2 3 4 5 6 7 8 9 10 11 12 13 14 15 16 17 18 19
000
FTUS44 KEWX 300521
TAFDRT
TAF
KDRT 300521Z 3006/3106 09006KT P6SM SCT250
     FM300900 11006KT P6SM BKN012
     FM301700 VRB03KT P6SM SCT035 SCT250 PROB30 3018/3024 P6SM TSRA
      SCT035CB
     FM310000 02005KT P6SM VCSH BKN035=

USA.gov is the U.S. government's official web portal to all federal, state and local government web resources and services.